createdAt,value
2023-02-22T00:00:46.214Z,992.87
2023-02-22T00:01:46.192Z,992.94
2023-02-22T00:03:49.377Z,992.92
2023-02-22T00:04:48.477Z,992.91
2023-02-22T00:05:48.413Z,992.89
2023-02-22T00:07:05.555Z,992.85
2023-02-22T00:07:48.387Z,992.93
2023-02-22T00:08:48.369Z,992.86
2023-02-22T00:09:48.356Z,992.88
2023-02-22T00:10:48.374Z,992.82
2023-02-22T00:11:48.336Z,992.85
2023-02-22T00:12:48.321Z,992.88
2023-02-22T00:13:48.313Z,992.78
2023-02-22T00:14:48.310Z,992.90
2023-02-22T00:15:48.315Z,992.76
2023-02-22T00:16:48.297Z,992.75
2023-02-22T00:17:48.272Z,992.73
2023-02-22T00:18:48.253Z,992.72
2023-02-22T00:19:48.254Z,992.78
2023-02-22T00:20:48.255Z,992.76
2023-02-22T00:21:48.229Z,992.71
2023-02-22T00:22:48.215Z,992.78
2023-02-22T00:23:48.216Z,992.75
2023-02-22T00:24:48.196Z,992.77
2023-02-22T00:25:48.205Z,992.75
2023-02-22T00:26:48.184Z,992.73
2023-02-22T00:27:48.176Z,992.76
2023-02-22T00:28:48.157Z,992.73
2023-02-22T00:29:48.147Z,992.71
2023-02-22T00:30:48.145Z,992.70
2023-02-22T00:31:48.281Z,992.68
2023-02-22T00:32:48.119Z,992.70
2023-02-22T00:33:48.110Z,992.73
2023-02-22T00:34:48.092Z,992.63
2023-02-22T00:35:48.141Z,992.72
2023-02-22T00:36:48.067Z,992.74
2023-02-22T00:37:48.061Z,992.61
2023-02-22T00:38:48.051Z,992.69
2023-02-22T00:39:48.039Z,992.72
2023-02-22T00:40:48.041Z,992.59
2023-02-22T00:41:48.146Z,992.60
2023-02-22T00:42:48.014Z,992.71
2023-02-22T00:43:48.012Z,992.66
2023-02-22T00:44:47.989Z,992.67
2023-02-22T00:45:48.048Z,992.66
2023-02-22T00:46:47.969Z,992.64
2023-02-22T00:47:47.967Z,992.56
2023-02-22T00:48:47.946Z,992.59
2023-02-22T00:49:47.947Z,992.58
2023-02-22T00:50:47.940Z,992.55
2023-02-22T00:51:47.918Z,992.63
2023-02-22T00:52:47.920Z,992.57
2023-02-22T00:53:47.892Z,992.65
2023-02-22T00:54:47.889Z,992.59
2023-02-22T00:55:47.894Z,992.66
2023-02-22T00:56:47.866Z,992.56
2023-02-22T00:57:47.858Z,992.57
2023-02-22T00:58:47.844Z,992.61
2023-02-22T00:59:47.838Z,992.63
2023-02-22T01:00:47.853Z,992.65
2023-02-22T01:01:47.818Z,992.65
2023-02-22T01:02:47.795Z,992.61
2023-02-22T01:03:47.794Z,992.63
2023-02-22T01:04:47.768Z,992.58
2023-02-22T01:05:47.778Z,992.54
2023-02-22T01:06:47.751Z,992.60
2023-02-22T01:07:47.740Z,992.64
2023-02-22T01:08:47.730Z,992.53
2023-02-22T01:09:47.718Z,992.58
2023-02-22T01:10:47.731Z,992.58
2023-02-22T01:11:47.712Z,992.54
2023-02-22T01:12:47.692Z,992.53
2023-02-22T01:13:47.692Z,992.54
2023-02-22T01:14:47.666Z,992.55
2023-02-22T01:15:47.682Z,992.52
2023-02-22T01:16:47.712Z,992.55
2023-02-22T01:17:47.665Z,992.57
2023-02-22T01:18:47.629Z,992.58
2023-02-22T01:19:47.618Z,992.50
2023-02-22T01:20:47.617Z,992.63
2023-02-22T01:21:47.595Z,992.60
2023-02-22T01:22:47.586Z,992.60
2023-02-22T01:23:47.578Z,992.50
2023-02-22T01:24:47.610Z,992.47
2023-02-22T01:25:47.603Z,992.47
2023-02-22T01:26:47.536Z,992.44
2023-02-22T01:27:47.529Z,992.46
2023-02-22T01:28:47.519Z,992.50
2023-02-22T01:29:47.517Z,992.41
2023-02-22T01:30:47.611Z,992.46
2023-02-22T01:31:47.539Z,992.44
2023-02-22T01:32:47.471Z,992.43
2023-02-22T01:33:47.477Z,992.34
2023-02-22T01:34:47.464Z,992.47
2023-02-22T01:35:47.453Z,992.40
2023-02-22T01:36:47.449Z,992.37
2023-02-22T01:37:47.422Z,992.33
2023-02-22T01:38:47.411Z,992.38
2023-02-22T01:39:47.422Z,992.35
2023-02-22T01:40:47.392Z,992.29
2023-02-22T01:41:47.409Z,992.34
2023-02-22T01:42:47.368Z,992.27
2023-02-22T01:43:47.376Z,992.27
2023-02-22T01:44:47.357Z,992.22
2023-02-22T01:45:47.374Z,992.26
2023-02-22T01:46:47.356Z,992.22
2023-02-22T01:47:47.321Z,992.23
2023-02-22T01:48:47.307Z,992.18
2023-02-22T01:49:47.303Z,992.23
2023-02-22T01:50:47.281Z,992.14
2023-02-22T01:51:47.292Z,992.29
2023-02-22T01:52:47.292Z,992.15
2023-02-22T01:53:47.252Z,992.18
2023-02-22T01:54:47.243Z,992.15
2023-02-22T01:55:47.233Z,992.30
2023-02-22T01:56:47.229Z,992.19
2023-02-22T01:57:47.227Z,992.12
2023-02-22T01:58:47.202Z,992.10
2023-02-22T01:59:47.200Z,992.12
2023-02-22T02:00:47.175Z,992.10
2023-02-22T02:01:47.179Z,992.10
2023-02-22T02:02:47.156Z,992.13
2023-02-22T02:03:47.170Z,992.14
2023-02-22T02:04:47.181Z,992.04
2023-02-22T02:05:47.124Z,992.07
2023-02-22T02:06:47.141Z,992.06
2023-02-22T02:07:47.106Z,992.04
2023-02-22T02:08:47.087Z,992.06
2023-02-22T02:09:47.083Z,991.99
2023-02-22T02:10:47.063Z,992.04
2023-02-22T02:11:47.069Z,991.98
2023-02-22T02:12:47.106Z,992.06
2023-02-22T02:13:47.052Z,992.11
2023-02-22T02:14:47.034Z,992.04
2023-02-22T02:15:47.030Z,992.07
2023-02-22T02:16:47.077Z,992.10
2023-02-22T02:17:47.005Z,991.98
2023-02-22T02:18:46.993Z,991.98
2023-02-22T02:19:46.980Z,991.97
2023-02-22T02:20:46.975Z,992.02
2023-02-22T02:21:46.987Z,992.01
2023-02-22T02:22:46.949Z,991.99
2023-02-22T02:23:46.944Z,991.97
2023-02-22T02:24:46.937Z,992.04
2023-02-22T02:25:46.918Z,991.91
2023-02-22T02:26:46.919Z,991.90
2023-02-22T02:27:46.896Z,992.02
2023-02-22T02:28:46.885Z,991.94
2023-02-22T02:29:46.886Z,991.92
2023-02-22T02:30:46.878Z,991.89
2023-02-22T02:31:46.942Z,991.84
2023-02-22T02:32:46.857Z,991.89
2023-02-22T02:33:46.832Z,991.88
2023-02-22T02:34:46.822Z,991.87
2023-02-22T02:35:46.833Z,991.96
2023-02-22T02:36:46.813Z,991.86
2023-02-22T02:39:38.886Z,991.87
2023-02-22T02:40:12.941Z,991.85
2023-02-22T02:41:12.868Z,991.86
2023-02-22T02:42:12.896Z,991.82
2023-02-22T02:43:12.864Z,991.82
2023-02-22T02:44:15.046Z,991.80
2023-02-22T02:45:12.813Z,991.77
2023-02-22T02:46:12.811Z,991.72
2023-02-22T02:47:12.887Z,991.78
2023-02-22T02:48:12.789Z,991.67
2023-02-22T02:49:12.778Z,991.67
2023-02-22T02:50:12.767Z,991.71
2023-02-22T02:51:12.758Z,991.74
2023-02-22T02:52:12.765Z,991.72
2023-02-22T02:53:12.743Z,991.72
2023-02-22T02:54:12.726Z,991.67
2023-02-22T02:55:12.715Z,991.69
2023-02-22T02:56:12.710Z,991.67
2023-02-22T02:57:12.703Z,991.64
2023-02-22T02:58:12.676Z,991.69
2023-02-22T02:59:12.673Z,991.61
2023-02-22T03:00:12.657Z,991.69
2023-02-22T03:01:12.683Z,991.75
2023-02-22T03:02:12.648Z,991.63
2023-02-22T03:03:12.627Z,991.74
2023-02-22T03:04:12.616Z,991.64
2023-02-22T03:05:12.611Z,991.67
2023-02-22T03:06:12.599Z,991.65
2023-02-22T03:07:12.629Z,991.63
2023-02-22T03:08:12.576Z,991.76
2023-02-22T03:09:12.564Z,991.62
2023-02-22T03:10:12.554Z,991.67
2023-02-22T03:11:12.553Z,991.77
2023-02-22T03:12:12.550Z,991.66
2023-02-22T03:13:12.529Z,991.65
2023-02-22T03:14:12.524Z,991.62
2023-02-22T03:15:12.506Z,991.59
2023-02-22T03:16:12.518Z,991.61
2023-02-22T03:17:12.504Z,991.61
2023-02-22T03:18:12.500Z,991.67
2023-02-22T03:19:12.461Z,991.69
2023-02-22T03:20:12.456Z,991.64
2023-02-22T03:21:12.438Z,991.60
2023-02-22T03:22:12.430Z,991.68
2023-02-22T03:23:12.433Z,991.66
2023-02-22T03:24:12.403Z,991.63
2023-02-22T03:25:12.409Z,991.66
2023-02-22T03:26:12.391Z,991.67
2023-02-22T03:27:12.374Z,991.64
2023-02-22T03:28:12.376Z,991.61
2023-02-22T03:29:12.406Z,991.66
2023-02-22T03:30:12.425Z,991.60
2023-02-22T03:31:12.378Z,991.56
2023-02-22T03:32:12.325Z,991.58
2023-02-22T03:33:12.322Z,991.62
2023-02-22T03:34:12.305Z,991.59
2023-02-22T03:35:12.293Z,991.55
2023-02-22T03:36:12.293Z,991.65
2023-02-22T03:37:12.270Z,991.49
2023-02-22T03:38:12.277Z,991.52
2023-02-22T03:39:12.260Z,991.56
2023-02-22T03:40:12.250Z,991.59
2023-02-22T03:41:12.240Z,991.52
2023-02-22T03:42:12.217Z,991.58
2023-02-22T03:43:12.249Z,991.58
2023-02-22T03:44:12.206Z,991.52
2023-02-22T03:45:12.206Z,991.48
2023-02-22T03:46:12.206Z,991.51
2023-02-22T03:47:12.175Z,991.61
2023-02-22T03:48:12.167Z,991.55
2023-02-22T03:49:12.147Z,991.57
2023-02-22T03:50:12.138Z,991.62
2023-02-22T03:51:12.132Z,991.55
2023-02-22T03:52:12.132Z,991.46
2023-02-22T03:53:12.131Z,991.45
2023-02-22T03:54:12.095Z,991.48
2023-02-22T03:55:12.097Z,991.49
2023-02-22T03:56:12.080Z,991.44
2023-02-22T03:57:12.068Z,991.42
2023-02-22T03:58:12.066Z,991.41
2023-02-22T03:59:12.055Z,991.46
2023-02-22T04:00:12.050Z,991.43
2023-02-22T04:01:13.236Z,991.42
2023-02-22T04:02:13.216Z,991.43
2023-02-22T04:03:13.248Z,991.42
2023-02-22T04:04:13.237Z,991.37
2023-02-22T04:05:13.183Z,991.41
2023-02-22T04:06:13.173Z,991.42
2023-02-22T04:07:13.150Z,991.43
2023-02-22T04:08:13.148Z,991.49
2023-02-22T04:09:13.163Z,991.46
2023-02-22T04:10:13.127Z,991.47
2023-02-22T04:11:13.158Z,991.48
2023-02-22T04:12:13.118Z,991.48
2023-02-22T04:13:13.093Z,991.46
2023-02-22T04:14:13.054Z,991.43
2023-02-22T04:15:13.094Z,991.39
2023-02-22T04:16:13.085Z,991.46
2023-02-22T04:17:13.061Z,991.42
2023-02-22T04:18:13.067Z,991.41
2023-02-22T04:19:13.072Z,991.47
2023-02-22T04:20:13.028Z,991.48
2023-02-22T04:21:13.019Z,991.46
2023-02-22T04:22:13.017Z,991.40
2023-02-22T04:23:13.020Z,991.50
2023-02-22T04:24:13.002Z,991.42
2023-02-22T04:25:12.981Z,991.41
2023-02-22T04:26:12.961Z,991.43
2023-02-22T04:27:12.963Z,991.43
2023-02-22T04:28:12.951Z,991.37
2023-02-22T04:29:12.947Z,991.38
2023-02-22T04:30:12.977Z,991.39
2023-02-22T04:31:12.966Z,991.38
2023-02-22T04:32:13.013Z,991.35
2023-02-22T04:33:12.982Z,991.41
2023-02-22T04:34:12.874Z,991.37
2023-02-22T04:35:12.874Z,991.43
2023-02-22T04:36:12.861Z,991.38
2023-02-22T04:37:12.856Z,991.40
2023-02-22T04:38:12.826Z,991.49
2023-02-22T04:39:12.828Z,991.37
2023-02-22T04:40:12.843Z,991.44
2023-02-22T04:41:12.803Z,991.31
2023-02-22T04:42:12.808Z,991.37
2023-02-22T04:43:12.802Z,991.46
2023-02-22T04:44:12.797Z,991.42
2023-02-22T04:45:12.795Z,991.45
2023-02-22T04:46:12.790Z,991.40
2023-02-22T04:47:12.789Z,991.36
2023-02-22T04:48:12.777Z,991.38
2023-02-22T04:49:12.744Z,991.39
2023-02-22T04:50:12.722Z,991.34
2023-02-22T04:51:12.713Z,991.40
2023-02-22T04:52:12.692Z,991.38
2023-02-22T04:53:12.693Z,991.37
2023-02-22T04:54:12.720Z,991.37
2023-02-22T04:55:12.688Z,991.40
2023-02-22T04:56:12.675Z,991.41
2023-02-22T04:57:12.658Z,991.31
2023-02-22T04:58:12.666Z,991.42
2023-02-22T04:59:12.676Z,991.31
2023-02-22T05:00:12.665Z,991.35
2023-02-22T05:01:12.642Z,991.29
2023-02-22T05:02:12.637Z,991.36
2023-02-22T05:03:12.612Z,991.32
2023-02-22T05:04:12.606Z,991.30
2023-02-22T05:05:12.580Z,991.31
2023-02-22T05:06:12.592Z,991.37
2023-02-22T05:07:12.572Z,991.26
2023-02-22T05:08:12.555Z,991.20
2023-02-22T05:09:12.570Z,991.28
2023-02-22T05:10:12.527Z,991.27
2023-02-22T05:11:12.533Z,991.29
2023-02-22T05:12:12.504Z,991.34
2023-02-22T05:13:12.495Z,991.28
2023-02-22T05:14:12.491Z,991.28
2023-02-22T05:15:12.502Z,991.17
2023-02-22T05:16:12.546Z,991.18
2023-02-22T05:17:12.471Z,991.22
2023-02-22T05:18:12.489Z,991.21
2023-02-22T05:19:12.465Z,991.26
2023-02-22T05:20:12.439Z,991.25
2023-02-22T05:21:12.443Z,991.29
2023-02-22T05:22:12.413Z,991.20
2023-02-22T05:23:12.431Z,991.20
2023-02-22T05:24:12.489Z,991.20
2023-02-22T05:25:12.386Z,991.20
2023-02-22T05:26:12.372Z,991.16
2023-02-22T05:27:12.366Z,991.21
2023-02-22T05:28:12.375Z,991.18
2023-02-22T05:29:12.369Z,991.12
2023-02-22T05:30:12.436Z,991.14
2023-02-22T05:31:12.346Z,991.21
2023-02-22T05:32:12.414Z,991.20
2023-02-22T05:33:12.330Z,991.14
2023-02-22T05:34:12.330Z,991.10
2023-02-22T05:35:12.317Z,991.14
2023-02-22T05:36:12.259Z,991.13
2023-02-22T05:37:12.296Z,991.15
2023-02-22T05:38:12.286Z,991.11
2023-02-22T05:39:12.355Z,991.12
2023-02-22T05:40:12.250Z,991.11
2023-02-22T05:41:12.267Z,991.13
2023-02-22T05:42:12.229Z,991.12
2023-02-22T05:43:12.240Z,991.12
2023-02-22T05:44:12.247Z,991.14
2023-02-22T05:45:12.238Z,991.08
2023-02-22T05:46:12.155Z,991.08
2023-02-22T05:47:12.184Z,991.00
2023-02-22T05:48:12.169Z,991.15
2023-02-22T05:49:12.224Z,991.00
2023-02-22T05:50:12.206Z,990.99
2023-02-22T05:51:12.233Z,990.98
2023-02-22T05:52:12.149Z,991.04
2023-02-22T05:53:12.141Z,990.95
2023-02-22T05:54:12.130Z,991.07
2023-02-22T05:55:12.115Z,991.04
2023-02-22T05:56:12.101Z,991.02
2023-02-22T05:57:12.109Z,990.99
2023-02-22T05:58:12.091Z,990.92
2023-02-22T05:59:12.110Z,990.93
2023-02-22T06:00:12.141Z,990.97
2023-02-22T06:01:12.025Z,990.95
2023-02-22T06:02:13.074Z,990.91
2023-02-22T06:03:12.021Z,991.04
2023-02-22T06:04:12.016Z,990.93
2023-02-22T06:05:12.091Z,991.00
2023-02-22T06:06:11.994Z,991.01
2023-02-22T06:07:11.986Z,991.01
2023-02-22T06:08:11.964Z,991.01
2023-02-22T06:09:11.970Z,990.96
2023-02-22T06:10:11.969Z,991.04
2023-02-22T06:11:11.941Z,990.96
2023-02-22T06:12:11.983Z,991.00
2023-02-22T06:13:12.467Z,990.94
2023-02-22T06:14:11.955Z,990.97
2023-02-22T06:15:11.921Z,991.02
2023-02-22T06:16:11.909Z,991.13
2023-02-22T06:17:11.893Z,991.01
2023-02-22T06:18:11.879Z,991.03
2023-02-22T06:19:11.873Z,991.13
2023-02-22T06:20:11.904Z,991.11
2023-02-22T06:21:11.864Z,990.97
2023-02-22T06:22:11.859Z,991.07
2023-02-22T06:23:11.882Z,991.00
2023-02-22T06:26:13.552Z,991.03
2023-02-22T06:26:17.916Z,991.13
2023-02-22T06:27:15.114Z,991.13
2023-02-22T06:28:15.709Z,991.01
2023-02-22T06:29:48.986Z,990.96
2023-02-22T06:30:15.112Z,991.12
2023-02-22T06:31:15.259Z,991.05
2023-02-22T06:32:16.095Z,991.12
2023-02-22T06:33:15.008Z,991.17
2023-02-22T06:34:14.994Z,991.14
2023-02-22T06:35:15.001Z,991.15
2023-02-22T06:36:14.982Z,991.14
2023-02-22T06:37:14.957Z,991.17
2023-02-22T06:38:14.938Z,991.12
2023-02-22T06:39:14.944Z,991.18
2023-02-22T06:40:14.940Z,991.13
2023-02-22T06:41:15.285Z,991.13
2023-02-22T06:42:14.959Z,991.13
2023-02-22T06:43:14.945Z,991.11
2023-02-22T06:44:14.872Z,991.11
2023-02-22T06:45:14.869Z,991.10
2023-02-22T06:46:14.860Z,991.06
2023-02-22T06:47:14.858Z,991.10
2023-02-22T06:48:14.856Z,991.17
2023-02-22T06:49:14.869Z,991.12
2023-02-22T06:50:14.838Z,991.04
2023-02-22T06:51:15.179Z,991.16
2023-02-22T06:52:14.844Z,991.15
2023-02-22T06:53:14.839Z,991.17
2023-02-22T06:54:14.819Z,991.11
2023-02-22T06:55:14.828Z,991.15
2023-02-22T06:56:14.786Z,991.17
2023-02-22T06:57:14.783Z,991.19
2023-02-22T06:58:14.752Z,991.22
2023-02-22T06:59:14.777Z,991.18
2023-02-22T07:00:14.761Z,991.21
2023-02-22T07:01:15.074Z,991.23
2023-02-22T07:02:14.750Z,991.31
2023-02-22T07:03:14.772Z,991.17
2023-02-22T07:04:14.713Z,991.21
2023-02-22T07:05:14.696Z,991.20
2023-02-22T07:06:14.727Z,991.20
2023-02-22T07:07:14.690Z,991.22
2023-02-22T07:08:14.652Z,991.22
2023-02-22T07:09:14.647Z,991.21
2023-02-22T07:10:14.653Z,991.25
2023-02-22T07:11:15.217Z,991.28
2023-02-22T07:12:14.756Z,991.29
2023-02-22T07:13:15.127Z,991.28
2023-02-22T07:14:14.627Z,991.27
2023-02-22T07:15:14.657Z,991.33
2023-02-22T07:16:14.711Z,991.33
2023-02-22T07:17:14.666Z,991.25
2023-02-22T07:18:14.596Z,991.30
2023-02-22T07:19:14.585Z,991.27
2023-02-22T07:20:14.572Z,991.27
2023-02-22T07:21:14.810Z,991.34
2023-02-22T07:22:14.568Z,991.32
2023-02-22T07:23:14.578Z,991.28
2023-02-22T07:24:15.256Z,991.24
2023-02-22T07:25:14.455Z,991.28
2023-02-22T07:26:14.522Z,991.31
2023-02-22T07:27:14.540Z,991.28
2023-02-22T07:28:14.473Z,991.39
2023-02-22T07:29:14.523Z,991.31
2023-02-22T07:30:14.646Z,991.30
2023-02-22T07:31:14.930Z,991.36
2023-02-22T07:32:14.606Z,991.40
2023-02-22T07:33:14.563Z,991.37
2023-02-22T07:34:14.468Z,991.42
2023-02-22T07:35:14.440Z,991.41
2023-02-22T07:36:14.476Z,991.40
2023-02-22T07:37:14.405Z,991.46
2023-02-22T07:38:14.527Z,991.37
2023-02-22T07:39:14.358Z,991.53
2023-02-22T07:40:14.350Z,991.37
2023-02-22T07:41:14.579Z,991.42
2023-02-22T07:42:14.413Z,991.44
2023-02-22T07:43:14.376Z,991.43
2023-02-22T07:44:14.413Z,991.40
2023-02-22T07:45:14.365Z,991.45
2023-02-22T07:46:14.353Z,991.40
2023-02-22T07:47:14.375Z,991.49
2023-02-22T07:48:16.861Z,991.38
2023-02-22T07:49:14.382Z,991.41
2023-02-22T07:50:14.436Z,991.45
2023-02-22T07:51:14.590Z,991.38
2023-02-22T07:52:14.335Z,991.37
2023-02-22T07:53:14.267Z,991.46
2023-02-22T07:54:14.317Z,991.39
2023-02-22T07:55:14.368Z,991.38
2023-02-22T07:56:14.576Z,991.34
2023-02-22T07:57:14.280Z,991.35
2023-02-22T07:58:14.516Z,991.46
2023-02-22T07:59:14.444Z,991.35
2023-02-22T08:00:14.248Z,991.32
2023-02-22T08:01:14.265Z,991.35
2023-02-22T08:02:16.888Z,991.32
2023-02-22T08:03:14.249Z,991.40
2023-02-22T08:04:14.342Z,991.35
2023-02-22T08:05:14.204Z,991.30
2023-02-22T08:06:14.278Z,991.26
2023-02-22T08:07:14.097Z,991.36
2023-02-22T08:08:14.068Z,991.28
2023-02-22T08:09:14.675Z,991.26
2023-02-22T08:10:14.650Z,991.17
2023-02-22T08:11:14.108Z,991.27
2023-02-22T08:12:14.197Z,991.26
2023-02-22T08:13:14.019Z,991.23
2023-02-22T08:14:14.274Z,991.21
2023-02-22T08:15:14.076Z,991.22
2023-02-22T08:16:17.653Z,991.20
2023-02-22T08:17:14.888Z,991.28
2023-02-22T08:18:14.505Z,991.23
2023-02-22T08:19:14.205Z,991.19
2023-02-22T08:20:14.127Z,991.21
2023-02-22T08:21:14.036Z,991.27
2023-02-22T08:22:14.041Z,991.22
2023-02-22T08:23:14.048Z,991.16
2023-02-22T08:24:14.027Z,991.22
2023-02-22T08:25:13.969Z,991.24
2023-02-22T08:26:14.013Z,991.12
2023-02-22T08:27:14.080Z,991.13
2023-02-22T08:28:13.940Z,991.28
2023-02-22T08:29:13.925Z,991.26
2023-02-22T08:30:13.988Z,991.20
2023-02-22T08:31:14.000Z,991.16
2023-02-22T08:32:14.005Z,991.17
2023-02-22T08:33:13.883Z,991.19
2023-02-22T08:34:13.970Z,991.20
2023-02-22T08:35:13.800Z,991.20
2023-02-22T08:36:13.808Z,991.25
2023-02-22T08:37:13.788Z,991.13
2023-02-22T08:38:15.282Z,991.12
2023-02-22T08:39:41.080Z,991.19
2023-02-22T08:40:19.349Z,991.12
2023-02-22T08:49:22.722Z,991.04
2023-02-22T08:50:05.322Z,991.01
2023-02-22T09:25:19.886Z,990.98
2023-02-22T09:26:18.692Z,991.00
2023-02-22T09:28:20.008Z,990.83
2023-02-22T09:29:18.660Z,990.87
2023-02-22T09:30:18.689Z,990.89
2023-02-22T09:31:19.122Z,990.89
2023-02-22T09:32:18.915Z,990.82
2023-02-22T09:33:18.623Z,990.83
2023-02-22T09:34:18.617Z,990.84
2023-02-22T09:35:18.627Z,990.84
2023-02-22T09:36:18.949Z,990.80
2023-02-22T09:37:18.592Z,990.75
2023-02-22T09:38:18.584Z,990.81
2023-02-22T09:39:18.579Z,990.79
2023-02-22T09:40:18.668Z,990.84
2023-02-22T09:41:18.727Z,990.80
2023-02-22T09:42:18.534Z,990.76
2023-02-22T09:43:18.511Z,990.67
2023-02-22T09:44:18.543Z,990.64
2023-02-22T09:45:18.498Z,990.64
2023-02-22T09:46:19.052Z,990.66
2023-02-22T09:47:18.570Z,990.69
2023-02-22T09:48:22.159Z,990.64
2023-02-22T09:49:18.463Z,990.62
2023-02-22T09:50:18.460Z,990.67
2023-02-22T09:51:18.446Z,990.56
2023-02-22T09:52:18.444Z,990.57
2023-02-22T09:53:18.445Z,990.57
2023-02-22T09:54:18.394Z,990.62
2023-02-22T09:55:18.413Z,990.62
2023-02-22T09:56:19.113Z,990.57
2023-02-22T09:57:18.385Z,990.63
2023-02-22T09:58:18.353Z,990.69
2023-02-22T09:59:18.343Z,990.60
2023-02-22T10:00:18.334Z,990.61
2023-02-22T10:01:18.339Z,990.50
2023-02-22T10:02:18.333Z,990.50
2023-02-22T10:03:21.003Z,990.51
2023-02-22T10:04:18.316Z,990.53
2023-02-22T10:05:18.320Z,990.48
2023-02-22T10:06:18.627Z,990.46
2023-02-22T10:07:18.298Z,990.46
2023-02-22T10:08:18.277Z,990.48
2023-02-22T10:09:18.237Z,990.46
2023-02-22T10:10:18.299Z,990.53
2023-02-22T10:11:18.235Z,990.53
2023-02-22T10:12:18.238Z,990.54
2023-02-22T10:13:18.212Z,990.52
2023-02-22T10:14:18.236Z,990.57
2023-02-22T10:15:18.216Z,990.55
2023-02-22T10:16:18.542Z,990.52
2023-02-22T10:17:18.168Z,990.53
2023-02-22T10:18:18.158Z,990.55
2023-02-22T10:19:18.130Z,990.53
2023-02-22T10:20:18.154Z,990.51
2023-02-22T10:21:18.156Z,990.50
2023-02-22T10:22:18.111Z,990.50
2023-02-22T10:23:18.103Z,990.55
2023-02-22T10:24:18.095Z,990.46
2023-02-22T10:25:18.166Z,990.40
2023-02-22T10:26:18.346Z,990.39
2023-02-22T10:27:18.049Z,990.39
2023-02-22T10:28:18.056Z,990.37
2023-02-22T10:29:18.026Z,990.43
2023-02-22T10:30:24.547Z,990.32
2023-02-22T10:31:19.207Z,990.33
2023-02-22T10:32:18.105Z,990.31
2023-02-22T10:33:18.006Z,990.32
2023-02-22T10:34:17.985Z,990.28
2023-02-22T10:35:17.976Z,990.34
2023-02-22T10:36:18.238Z,990.41
2023-02-22T10:37:17.985Z,990.40
2023-02-22T10:38:18.004Z,990.44
2023-02-22T10:39:17.979Z,990.40
2023-02-22T10:40:17.952Z,990.38
2023-02-22T10:41:17.913Z,990.39
2023-02-22T10:42:17.924Z,990.36
2023-02-22T10:43:17.947Z,990.38
2023-02-22T10:44:17.919Z,990.33
2023-02-22T10:45:17.867Z,990.41
2023-02-22T10:46:18.202Z,990.38
2023-02-22T10:47:18.538Z,990.45
2023-02-22T10:48:17.846Z,990.35
2023-02-22T10:49:17.850Z,990.35
2023-02-22T10:50:17.845Z,990.32
2023-02-22T10:51:17.795Z,990.43
2023-02-22T10:52:17.808Z,990.40
2023-02-22T10:53:17.792Z,990.37
2023-02-22T10:54:17.779Z,990.35
2023-02-22T10:55:17.764Z,990.32
2023-02-22T10:56:18.145Z,990.24
2023-02-22T10:57:17.733Z,990.29
2023-02-22T10:58:17.779Z,990.23
2023-02-22T11:19:47.584Z,990.03
2023-02-22T11:20:40.713Z,990.00
2023-02-22T11:21:40.989Z,990.04
2023-02-22T11:24:06.546Z,990.05
2023-02-22T11:25:06.589Z,989.88
2023-02-22T11:26:07.944Z,989.85
2023-02-22T11:29:37.498Z,989.90
2023-02-22T11:30:33.912Z,989.87
2023-02-22T11:31:33.732Z,989.86
2023-02-22T11:39:46.224Z,989.81
2023-02-22T11:50:20.412Z,989.58
2023-02-22T11:51:20.636Z,989.58
2023-02-22T11:52:20.396Z,989.64
2023-02-22T11:53:20.403Z,989.60
2023-02-22T11:54:20.377Z,989.60
2023-02-22T11:55:26.778Z,989.58
2023-02-22T11:56:35.744Z,989.61
2023-02-22T11:57:21.342Z,989.57
2023-02-22T11:58:20.323Z,989.58
2023-02-22T11:59:20.319Z,989.64
2023-02-22T12:00:20.300Z,989.65
2023-02-22T12:01:20.288Z,989.62
2023-02-22T12:02:20.283Z,989.52
2023-02-22T12:25:16.488Z,989.38
2023-02-22T12:26:17.088Z,989.37
2023-02-22T12:27:16.549Z,989.38
2023-02-22T12:28:24.172Z,989.37
2023-02-22T12:29:17.453Z,989.34
2023-02-22T12:30:16.507Z,989.37
2023-02-22T12:31:16.702Z,989.40
2023-02-22T12:32:16.595Z,989.31
2023-02-22T12:33:16.397Z,989.25
2023-02-22T12:34:16.566Z,989.25
2023-02-22T12:35:16.399Z,989.26
2023-02-22T12:36:16.482Z,989.21
2023-02-22T12:37:16.461Z,989.28
2023-02-22T12:38:16.401Z,989.30
2023-02-22T12:39:16.362Z,989.28
2023-02-22T12:40:16.432Z,989.26
2023-02-22T12:41:16.741Z,989.32
2023-02-22T12:42:16.357Z,989.29
2023-02-22T12:43:16.340Z,989.28
2023-02-22T12:44:16.297Z,989.30
2023-02-22T12:45:16.364Z,989.31
2023-02-22T12:46:16.310Z,989.26
2023-02-22T12:47:16.267Z,989.27
2023-02-22T12:48:16.246Z,989.28
2023-02-22T12:49:16.239Z,989.25
2023-02-22T12:50:16.298Z,989.24
2023-02-22T12:51:16.540Z,989.24
2023-02-22T12:52:21.774Z,989.32
2023-02-22T12:53:17.201Z,989.29
2023-02-22T12:54:16.181Z,989.25
2023-02-22T12:55:16.282Z,989.23
2023-02-22T12:56:16.202Z,989.26
2023-02-22T12:57:16.220Z,989.23
2023-02-22T12:58:16.157Z,989.27
2023-02-22T12:59:16.154Z,989.15
2023-02-22T13:00:16.164Z,989.21
2023-02-22T13:01:16.574Z,989.17
2023-02-22T13:02:16.101Z,989.13
2023-02-22T13:03:16.131Z,989.16
2023-02-22T13:04:20.982Z,989.20
2023-02-22T13:05:17.125Z,989.22
2023-02-22T13:06:16.130Z,989.21
2023-02-22T13:07:16.106Z,989.12
2023-02-22T13:08:16.079Z,989.14
2023-02-22T13:09:16.111Z,989.17
2023-02-22T13:10:16.048Z,989.21
2023-02-22T13:11:16.459Z,989.21
2023-02-22T13:12:16.037Z,989.15
2023-02-22T13:13:16.007Z,989.14
2023-02-22T13:14:15.992Z,989.14
2023-02-22T13:15:15.976Z,989.14
2023-02-22T13:16:16.129Z,989.12
2023-02-22T13:17:15.968Z,989.09
2023-02-22T13:18:16.003Z,989.08
2023-02-22T13:19:15.986Z,989.11
2023-02-22T13:20:15.989Z,989.18
2023-02-22T13:21:16.320Z,989.08
2023-02-22T13:22:15.970Z,989.11
2023-02-22T13:23:15.960Z,989.06
2023-02-22T13:24:15.947Z,989.08
2023-02-22T13:25:15.986Z,989.03
2023-02-22T13:26:15.904Z,989.07
2023-02-22T13:27:15.889Z,989.02
2023-02-22T13:28:15.975Z,989.00
2023-02-22T13:29:15.888Z,989.07
2023-02-22T13:30:15.870Z,989.00
2023-02-22T13:31:16.041Z,989.10
2023-02-22T13:32:15.833Z,989.03
2023-02-22T13:33:15.791Z,988.98
2023-02-22T13:34:16.063Z,988.94
2023-02-22T13:35:15.776Z,988.94
2023-02-22T13:36:16.065Z,989.01
2023-02-22T13:37:15.799Z,989.00
2023-02-22T13:38:15.806Z,988.88
2023-02-22T13:39:15.885Z,988.93
2023-02-22T13:40:15.721Z,988.94
2023-02-22T13:41:17.309Z,988.85
2023-02-22T13:42:16.893Z,988.88
2023-02-22T13:43:16.923Z,988.76
2023-02-22T13:44:17.106Z,988.82
2023-02-22T13:45:16.937Z,988.81
2023-02-22T13:46:17.200Z,988.80
2023-02-22T13:47:16.801Z,988.70
2023-02-22T13:48:16.978Z,988.77
2023-02-22T13:49:16.913Z,988.78
2023-02-22T13:50:19.647Z,988.70
2023-02-22T13:56:07.068Z,988.66
2023-02-22T13:57:07.409Z,988.69
2023-02-22T13:58:07.329Z,988.67
2023-02-22T13:59:07.126Z,988.61
2023-02-22T14:00:07.025Z,988.67
2023-02-22T14:01:07.031Z,988.62
2023-02-22T14:02:06.995Z,988.63
2023-02-22T14:03:34.708Z,988.57
2023-02-22T14:04:07.052Z,988.64
2023-02-22T14:05:07.049Z,988.60
2023-02-22T14:06:07.040Z,988.56
2023-02-22T14:07:06.947Z,988.49
2023-02-22T14:08:06.943Z,988.55
2023-02-22T14:09:06.971Z,988.56
2023-02-22T14:10:07.029Z,988.47
2023-02-22T14:11:06.934Z,988.45
2023-02-22T14:12:06.894Z,988.54
2023-02-22T14:13:06.897Z,988.48
2023-02-22T14:14:06.882Z,988.42
2023-02-22T14:15:10.720Z,988.44
2023-02-22T14:16:07.950Z,988.54
2023-02-22T14:17:06.862Z,988.45
2023-02-22T14:18:06.936Z,988.52
2023-02-22T14:19:06.824Z,988.52
2023-02-22T14:20:06.842Z,988.44
2023-02-22T14:21:06.822Z,988.47
2023-02-22T14:22:06.808Z,988.44
2023-02-22T14:23:06.852Z,988.45